Mound, Minnesota
Current Conditions -  °F | °C
As of 12:53 AM on Monday 24 Nov 2014 (Local Time) from KFCM Reporting Station
Light Snow Light Snow  
Wind Chill: 22°   Ceiling: 2000
Heat Index: 32°   Visibility: 5mi
Dew Point: 27°   Wind: 14mph
Humidity: 82%   Direction: 300°WNW
Pressure: 29.32"   Gusts: NA
Location:  44.93°N, 93.66°W
Report Text: KFCM 240653Z AUTO 30012KT 5SM -SN OVC020 00/M03 A2932 RMK AO2 SLP934 P0000 T00001028
Loading
Personal Weather Stations






























Interactive Weather Map New forecast layout! Learn more

10-Day Weather Forecast

Advertisements
Track Severe Weather on mobile